Time;durP1;ratioP1;P1;durP2;ratioP2;P2;SDS_P1;SDS_P2;PMS_P1;PMS_P2;Temp;Humidity;BMP_temperature;BMP_pressure;BME280_temperature;BME280_humidity;BME280_pressure;Samples;Min_cycle;Max_cycle;Signal;HPM_P1;HPM_P2
2024/04/20 00:02:08;;;;;;;2.80;1.80;;;7.40;99.90;;;;;;5378390;26;20287;-67
2024/04/20 00:04:37;;;;;;;1.90;1.70;;;7.50;99.90;;;;;;5402759;26;20282;-67
2024/04/20 00:07:08;;;;;;;2.20;1.67;;;7.50;99.90;;;;;;5373086;26;20688;-67
2024/04/20 00:09:39;;;;;;;2.10;1.90;;;7.50;99.90;;;;;;5375924;26;20283;-67
2024/04/20 00:12:08;;;;;;;2.20;1.77;;;7.50;99.90;;;;;;5376299;26;20240;-67
2024/04/20 00:14:37;;;;;;;1.50;1.40;;;7.50;99.90;;;;;;5376370;26;20275;-67
2024/04/20 00:17:06;;;;;;;1.27;1.20;;;7.60;99.90;;;;;;5372159;26;20298;-66
2024/04/20 00:19:35;;;;;;;1.63;1.53;;;7.70;99.90;;;;;;5373546;26;20228;-68
2024/04/20 00:22:03;;;;;;;2.20;2.00;;;7.60;99.90;;;;;;5372486;26;20296;-67
2024/04/20 00:24:32;;;;;;;1.60;1.50;;;7.70;99.90;;;;;;5373307;26;20244;-66
2024/04/20 00:27:03;;;;;;;2.10;1.60;;;7.60;99.90;;;;;;5371400;26;20236;-67
2024/04/20 00:29:32;;;;;;;1.80;1.70;;;7.60;99.90;;;;;;5365704;26;20330;-67
2024/04/20 00:32:02;;;;;;;1.90;1.30;;;7.70;99.90;;;;;;5370236;26;20727;-66
2024/04/20 00:34:31;;;;;;;5.23;1.70;;;7.70;99.90;;;;;;5366506;26;20348;-67
2024/04/20 00:37:00;;;;;;;1.90;1.80;;;7.70;99.90;;;;;;5369710;26;20332;-66
2024/04/20 00:39:29;;;;;;;1.70;1.60;;;7.70;99.90;;;;;;5365581;26;20283;-67
2024/04/20 00:41:58;;;;;;;1.57;1.37;;;7.70;99.90;;;;;;5368693;26;20568;-66
2024/04/20 00:44:29;;;;;;;1.50;1.40;;;7.70;99.90;;;;;;5362826;26;20229;-67
2024/04/20 00:47:01;;;;;;;1.40;1.30;;;7.80;99.90;;;;;;5366599;26;20305;-67
2024/04/20 00:49:30;;;;;;;1.83;1.60;;;7.80;99.90;;;;;;5359188;26;20236;-67
2024/04/20 00:52:00;;;;;;;1.60;1.47;;;7.80;99.90;;;;;;5362317;26;20237;-67
2024/04/20 00:54:30;;;;;;;4.83;1.80;;;7.70;99.90;;;;;;5356227;26;20754;-68
2024/04/20 00:56:59;;;;;;;2.30;1.50;;;7.70;99.90;;;;;;5353379;26;20240;-67
2024/04/20 00:59:32;;;;;;;1.50;1.40;;;7.60;99.90;;;;;;5366312;26;20237;-67
2024/04/20 01:02:01;;;;;;;1.40;1.20;;;7.50;99.90;;;;;;5377194;26;20735;-66
2024/04/20 01:04:29;;;;;;;1.47;1.30;;;7.60;99.90;;;;;;5374619;26;20348;-67
2024/04/20 01:06:58;;;;;;;2.70;1.20;;;7.60;99.90;;;;;;5356538;26;20287;-67
2024/04/20 01:09:27;;;;;;;1.67;1.10;;;7.70;99.90;;;;;;5369081;26;20336;-67
2024/04/20 01:11:56;;;;;;;1.30;1.13;;;7.70;99.90;;;;;;5362002;26;20278;-67
2024/04/20 01:14:25;;;;;;;2.13;1.60;;;7.80;99.90;;;;;;5368626;26;20295;-66
2024/04/20 01:16:56;;;;;;;1.10;1.10;;;7.80;99.90;;;;;;5364460;26;20283;-67
2024/04/20 01:19:27;;;;;;;2.93;1.20;;;7.80;99.90;;;;;;5368115;26;20275;-67
2024/04/20 01:21:56;;;;;;;1.20;1.10;;;7.80;99.90;;;;;;5375835;26;20244;-67
2024/04/20 01:24:26;;;;;;;1.73;1.20;;;7.80;99.90;;;;;;5371878;26;20424;-67
2024/04/20 01:26:57;;;;;;;1.57;1.30;;;7.80;99.90;;;;;;5375953;26;20227;-67
2024/04/20 01:29:26;;;;;;;1.47;1.37;;;7.70;99.90;;;;;;5368648;26;20705;-67
2024/04/20 01:31:55;;;;;;;1.47;1.20;;;7.70;99.90;;;;;;5375086;26;20670;-67
2024/04/20 01:34:24;;;;;;;3.00;1.43;;;7.70;99.90;;;;;;5373868;26;20286;-67
2024/04/20 01:36:52;;;;;;;3.57;1.40;;;7.70;99.90;;;;;;5371291;26;20239;-65
2024/04/20 01:39:21;;;;;;;1.90;1.10;;;7.60;99.90;;;;;;5369200;26;20279;-66
2024/04/20 01:41:50;;;;;;;2.10;1.90;;;7.60;99.90;;;;;;5374275;26;20263;-67
2024/04/20 01:44:22;;;;;;;1.50;1.40;;;7.60;99.90;;;;;;5367076;26;20279;-66
2024/04/20 01:46:51;;;;;;;2.13;1.57;;;7.60;99.90;;;;;;5367694;26;20353;-66
2024/04/20 01:49:20;;;;;;;3.83;1.60;;;7.60;99.90;;;;;;5368000;26;20359;-65
2024/04/20 01:51:48;;;;;;;2.57;1.60;;;7.60;99.90;;;;;;5356382;26;20279;-65
2024/04/20 01:54:17;;;;;;;1.80;1.70;;;7.60;99.90;;;;;;5362938;26;20362;-65
2024/04/20 01:56:46;;;;;;;2.17;1.60;;;7.50;99.90;;;;;;5373841;26;20264;-67
2024/04/20 01:59:14;;;;;;;3.60;2.03;;;7.50;99.90;;;;;;5365363;26;20350;-67
2024/04/20 02:01:48;;;;;;;2.00;1.77;;;7.50;99.90;;;;;;5366381;26;20314;-67
2024/04/20 02:04:17;;;;;;;2.70;1.77;;;7.50;99.90;;;;;;5368013;26;20342;-67
2024/04/20 02:06:46;;;;;;;2.17;1.97;;;7.50;99.90;;;;;;5366677;26;20241;-67
2024/04/20 02:09:15;;;;;;;2.10;1.90;;;7.50;99.90;;;;;;5367407;26;20249;-67
2024/04/20 02:11:44;;;;;;;4.03;1.77;;;7.40;99.90;;;;;;5366404;26;20241;-67
2024/04/20 02:14:12;;;;;;;1.97;1.50;;;7.40;99.90;;;;;;5364558;26;20232;-67
2024/04/20 02:16:41;;;;;;;3.70;1.70;;;7.40;99.90;;;;;;5367669;26;20225;-67
2024/04/20 02:19:13;;;;;;;2.43;1.80;;;7.50;99.90;;;;;;5369413;26;20239;-67
2024/04/20 02:21:41;;;;;;;3.37;1.87;;;7.50;99.90;;;;;;5367926;26;20238;-67
2024/04/20 02:24:11;;;;;;;3.47;1.57;;;7.50;99.90;;;;;;5364651;26;20232;-67
2024/04/20 02:26:40;;;;;;;1.80;1.70;;;7.50;99.90;;;;;;5370330;26;20275;-66
2024/04/20 02:29:09;;;;;;;2.47;1.87;;;7.50;99.90;;;;;;5372230;26;20230;-67
2024/04/20 02:31:38;;;;;;;4.00;1.97;;;7.60;99.90;;;;;;5361644;26;20281;-66
2024/04/20 02:34:07;;;;;;;2.77;1.83;;;7.60;99.90;;;;;;5371586;26;20272;-66
2024/04/20 02:36:38;;;;;;;2.00;1.77;;;7.60;99.90;;;;;;5367059;26;20234;-67
2024/04/20 02:39:07;;;;;;;3.33;1.93;;;7.60;99.90;;;;;;5372386;26;20281;-66
2024/04/20 02:41:36;;;;;;;5.33;2.30;;;7.50;99.90;;;;;;5369029;26;20329;-67
2024/04/20 02:44:04;;;;;;;5.13;2.20;;;7.40;99.90;;;;;;5364567;26;20236;-67
2024/04/20 02:46:33;;;;;;;3.23;2.03;;;7.40;99.90;;;;;;5373753;26;20240;-66
2024/04/20 02:49:02;;;;;;;2.20;2.00;;;7.30;99.90;;;;;;5363359;26;20236;-67
2024/04/20 02:51:31;;;;;;;2.73;2.00;;;7.40;99.90;;;;;;5372398;26;20230;-67
2024/04/20 02:54:02;;;;;;;2.63;2.10;;;7.40;99.90;;;;;;5370803;26;20359;-66
2024/04/20 02:56:31;;;;;;;2.70;1.87;;;7.30;99.90;;;;;;5366826;26;20245;-66
2024/04/20 02:59:00;;;;;;;1.93;1.77;;;7.30;99.90;;;;;;5365509;26;20236;-67
2024/04/20 03:01:29;;;;;;;2.43;1.57;;;7.30;99.90;;;;;;5366556;26;20573;-65
2024/04/20 03:03:58;;;;;;;1.80;1.63;;;7.20;99.90;;;;;;5363710;26;20249;-65
2024/04/20 03:06:26;;;;;;;1.70;1.60;;;7.20;99.90;;;;;;5373232;26;20253;-65
2024/04/20 03:08:55;;;;;;;3.57;1.63;;;7.20;99.90;;;;;;5369704;26;20228;-66
2024/04/20 03:11:27;;;;;;;3.00;2.03;;;7.20;99.90;;;;;;5373404;26;21522;-65
2024/04/20 03:13:55;;;;;;;3.10;1.50;;;7.20;99.90;;;;;;5363010;26;20228;-66
2024/04/20 03:16:24;;;;;;;1.70;1.60;;;7.10;99.90;;;;;;5366773;26;20249;-66
2024/04/20 03:18:53;;;;;;;4.33;1.73;;;7.10;99.90;;;;;;5373046;26;20806;-66
2024/04/20 03:21:22;;;;;;;2.53;1.63;;;7.10;99.90;;;;;;5370981;26;20228;-66
2024/04/20 03:23:51;;;;;;;2.13;1.77;;;7.10;99.90;;;;;;5371743;26;20836;-66
2024/04/20 03:26:17;;;;;;;1.93;1.70;;;7.10;99.90;;;;;;5367540;26;20239;-66
2024/04/20 03:28:48;;;;;;;1.57;1.40;;;7.00;99.90;;;;;;5371354;26;20278;-66
2024/04/20 03:31:17;;;;;;;3.50;2.03;;;7.00;99.90;;;;;;5370230;26;20232;-66
2024/04/20 03:33:46;;;;;;;3.33;1.80;;;7.00;99.90;;;;;;5368052;26;20701;-66
2024/04/20 03:36:14;;;;;;;3.13;2.00;;;6.90;99.90;;;;;;5367364;26;20232;-65
2024/04/20 03:38:47;;;;;;;2.33;1.63;;;6.90;99.90;;;;;;5369425;26;20239;-66
2024/04/20 03:41:16;;;;;;;4.00;1.67;;;7.00;99.90;;;;;;5366624;26;20533;-65
2024/04/20 03:43:48;;;;;;;4.77;1.73;;;6.90;99.90;;;;;;5372872;26;20833;-65
2024/04/20 03:46:16;;;;;;;4.10;2.00;;;6.90;99.90;;;;;;5367787;26;20743;-65
2024/04/20 03:48:48;;;;;;;2.40;1.80;;;6.90;99.90;;;;;;5371703;26;20907;-65
2024/04/20 03:51:17;;;;;;;4.43;1.90;;;6.80;99.90;;;;;;5366081;26;20240;-66
2024/04/20 03:53:46;;;;;;;2.70;1.70;;;6.90;99.90;;;;;;5366273;26;20272;-65
2024/04/20 03:56:15;;;;;;;2.07;1.70;;;6.80;99.90;;;;;;5382303;26;20248;-65
2024/04/20 03:58:43;;;;;;;4.07;1.73;;;6.80;99.90;;;;;;5366066;26;20240;-65
2024/04/20 04:01:15;;;;;;;1.70;1.60;;;6.80;99.90;;;;;;5363517;26;20326;-66
2024/04/20 04:03:44;;;;;;;2.67;1.47;;;6.70;99.90;;;;;;5371850;26;20232;-65
2024/04/20 04:06:12;;;;;;;2.17;1.80;;;6.70;99.90;;;;;;5364360;26;20606;-65
2024/04/20 04:08:41;;;;;;;3.63;1.90;;;6.70;99.90;;;;;;5361777;26;20341;-65
2024/04/20 04:11:10;;;;;;;2.10;1.70;;;6.70;99.90;;;;;;5371045;26;20370;-64
2024/04/20 04:13:40;;;;;;;2.20;1.40;;;6.70;99.90;;;;;;5370416;26;20230;-65
2024/04/20 04:16:09;;;;;;;1.67;1.57;;;6.70;99.90;;;;;;5366117;26;20281;-65
2024/04/20 04:18:41;;;;;;;2.13;1.87;;;6.70;99.90;;;;;;5367061;26;20274;-65
2024/04/20 04:21:10;;;;;;;1.70;1.60;;;6.70;99.90;;;;;;5354537;26;20236;-66
2024/04/20 04:23:39;;;;;;;2.77;1.73;;;6.70;99.90;;;;;;5365729;26;20239;-66
2024/04/20 04:26:08;;;;;;;3.30;1.97;;;6.70;99.90;;;;;;5357731;26;20287;-67
2024/04/20 04:28:37;;;;;;;1.60;1.50;;;6.60;99.90;;;;;;5362919;26;20239;-66
2024/04/20 04:31:06;;;;;;;2.37;1.50;;;6.60;99.90;;;;;;5370936;26;20865;-65
2024/04/20 04:33:35;;;;;;;3.57;1.63;;;6.60;99.90;;;;;;5386831;26;20543;-66
2024/04/20 04:36:07;;;;;;;2.77;1.90;;;6.60;99.90;;;;;;5362119;26;20730;-65
2024/04/20 04:38:36;;;;;;;3.70;1.80;;;6.70;99.90;;;;;;5351898;26;20785;-66
2024/04/20 04:41:04;;;;;;;2.57;1.30;;;6.60;99.90;;;;;;5355574;26;20242;-66
2024/04/20 04:43:33;;;;;;;2.57;1.40;;;6.60;99.90;;;;;;5364337;26;20232;-66
2024/04/20 04:46:02;;;;;;;2.60;1.60;;;6.70;99.90;;;;;;5376374;26;20308;-65
2024/04/20 04:48:31;;;;;;;4.27;1.40;;;6.70;99.90;;;;;;5377245;26;20779;-65
2024/04/20 04:50:59;;;;;;;2.33;1.23;;;6.60;99.90;;;;;;5376978;26;20272;-65
2024/04/20 04:53:31;;;;;;;4.60;1.63;;;6.60;99.90;;;;;;5377372;26;20281;-66
2024/04/20 04:56:00;;;;;;;1.60;1.50;;;6.60;99.90;;;;;;5369299;26;20321;-66
2024/04/20 04:58:29;;;;;;;2.57;1.70;;;6.60;99.90;;;;;;5370041;26;20307;-67
2024/04/20 05:00:57;;;;;;;2.30;1.60;;;6.60;99.90;;;;;;5375149;26;20254;-66
2024/04/20 05:03:26;;;;;;;2.37;1.53;;;6.50;99.90;;;;;;5377399;26;20246;-66
2024/04/20 05:05:55;;;;;;;1.83;1.60;;;6.50;99.90;;;;;;5358864;26;20310;-66
2024/04/20 05:08:26;;;;;;;3.40;1.70;;;6.60;99.90;;;;;;5372318;26;20282;-67
2024/04/20 05:10:58;;;;;;;2.00;1.70;;;6.60;99.90;;;;;;5358388;26;20286;-67
2024/04/20 05:13:26;;;;;;;1.80;1.70;;;6.50;99.90;;;;;;5370339;26;20709;-67
2024/04/20 05:15:55;;;;;;;2.73;1.40;;;6.50;99.90;;;;;;5366315;26;20282;-66
2024/04/20 05:18:25;;;;;;;3.20;1.50;;;6.50;99.90;;;;;;5365499;26;20302;-67
2024/04/20 05:20:53;;;;;;;3.80;1.40;;;6.50;99.90;;;;;;5354322;26;20611;-66
2024/04/20 05:23:23;;;;;;;3.20;1.50;;;6.50;99.90;;;;;;5365123;26;20246;-66
2024/04/20 05:25:51;;;;;;;3.23;1.53;;;6.60;99.90;;;;;;5366107;26;20272;-67
2024/04/20 05:28:25;;;;;;;2.73;1.63;;;6.60;99.90;;;;;;5376231;26;20286;-66
2024/04/20 05:30:54;;;;;;;2.27;1.57;;;6.60;99.90;;;;;;5371494;26;20353;-66
2024/04/20 05:33:22;;;;;;;4.07;2.17;;;6.60;99.90;;;;;;5368800;26;20292;-67
2024/04/20 05:35:51;;;;;;;6.93;1.47;;;6.60;99.90;;;;;;5355485;26;20229;-66
2024/04/20 05:38:20;;;;;;;1.57;1.23;;;6.60;99.90;;;;;;5366522;26;20368;-66
2024/04/20 05:40:49;;;;;;;1.63;1.50;;;6.60;99.90;;;;;;5348666;26;20704;-66
2024/04/20 05:43:18;;;;;;;1.50;1.40;;;6.60;99.90;;;;;;5371425;26;20656;-67
2024/04/20 05:45:49;;;;;;;3.30;1.63;;;6.70;99.90;;;;;;5371035;26;20239;-67
2024/04/20 05:48:21;;;;;;;5.80;1.53;;;6.80;99.90;;;;;;5373935;26;20229;-67
2024/04/20 05:50:49;;;;;;;1.50;1.40;;;6.80;99.90;;;;;;5372529;26;20687;-67
2024/04/20 05:53:18;;;;;;;1.80;1.27;;;6.80;99.90;;;;;;5374847;26;20304;-67
2024/04/20 05:55:47;;;;;;;1.67;1.40;;;6.80;99.90;;;;;;5370262;26;20230;-66
2024/04/20 05:58:16;;;;;;;2.47;1.30;;;6.70;99.90;;;;;;5375748;26;20602;-67
2024/04/20 06:00:46;;;;;;;3.03;1.53;;;6.70;99.90;;;;;;5360403;26;20240;-67
2024/04/20 06:03:17;;;;;;;1.77;1.33;;;6.70;99.90;;;;;;5370072;26;20238;-67
2024/04/20 06:05:47;;;;;;;1.47;1.20;;;6.60;99.90;;;;;;5355945;26;20247;-66
2024/04/20 06:08:16;;;;;;;1.30;1.20;;;6.70;99.90;;;;;;5373964;26;20285;-66
2024/04/20 06:10:55;;;;;;;1.13;1.00;;;6.80;99.90;;;;;;5370019;26;20240;-67
2024/04/20 06:13:24;;;;;;;1.17;1.07;;;6.80;99.90;;;;;;5368349;26;20299;-67
2024/04/20 06:15:53;;;;;;;1.47;1.20;;;6.80;99.90;;;;;;5357225;26;20604;-66
2024/04/20 06:18:24;;;;;;;1.60;1.50;;;6.80;99.90;;;;;;5370394;26;20282;-66
2024/04/20 06:20:51;;;;;;;4.00;1.20;;;6.80;99.90;;;;;;5356979;26;20234;-66
2024/04/20 06:23:20;;;;;;;2.90;1.50;;;6.90;99.90;;;;;;5365275;26;20236;-66
2024/04/20 06:25:50;;;;;;;1.30;1.20;;;6.80;99.90;;;;;;5360667;26;20289;-66
2024/04/20 06:28:19;;;;;;;1.30;1.10;;;6.80;99.90;;;;;;5375593;26;20315;-65
2024/04/20 06:30:50;;;;;;;1.67;1.13;;;6.80;99.90;;;;;;5372634;26;20351;-66
2024/04/20 06:33:19;;;;;;;1.00;1.00;;;6.80;99.90;;;;;;5378938;26;20251;-65
2024/04/20 06:35:51;;;;;;;1.27;1.17;;;6.80;99.90;;;;;;5368112;26;20239;-66
2024/04/20 06:38:20;;;;;;;1.00;0.90;;;6.80;99.90;;;;;;5363919;26;20572;-68
2024/04/20 06:40:49;;;;;;;1.43;1.20;;;6.90;99.90;;;;;;5377928;26;20376;-67
2024/04/20 06:43:17;;;;;;;2.00;1.03;;;6.90;99.90;;;;;;5379058;26;20358;-68
2024/04/20 06:45:46;;;;;;;1.63;0.97;;;7.00;99.90;;;;;;5368591;26;20735;-66
2024/04/20 06:48:15;;;;;;;1.97;1.13;;;7.10;99.90;;;;;;5360461;26;20228;-66
2024/04/20 06:50:44;;;;;;;2.10;1.00;;;7.10;99.90;;;;;;5370525;26;20348;-68
2024/04/20 06:53:15;;;;;;;1.87;1.10;;;7.10;99.90;;;;;;5364301;26;20265;-67
2024/04/20 06:55:44;;;;;;;1.20;1.10;;;7.10;99.90;;;;;;5353555;26;20252;-67
2024/04/20 06:58:13;;;;;;;0.97;0.97;;;7.10;99.90;;;;;;5368776;26;20259;-67
2024/04/20 07:00:41;;;;;;;1.07;1.07;;;7.10;99.80;;;;;;5368001;26;20266;-67
2024/04/20 07:03:10;;;;;;;1.00;1.00;;;7.20;99.90;;;;;;5369470;26;20735;-67
2024/04/20 07:05:39;;;;;;;1.53;1.03;;;7.20;99.90;;;;;;5377122;26;20365;-67
2024/04/20 07:08:08;;;;;;;1.10;1.03;;;7.20;99.90;;;;;;5370411;26;20298;-68
2024/04/20 07:10:40;;;;;;;1.23;1.07;;;7.20;99.20;;;;;;5365220;26;20235;-67
2024/04/20 07:13:09;;;;;;;1.10;1.00;;;7.20;98.60;;;;;;5370537;26;20241;-68
2024/04/20 07:15:37;;;;;;;1.30;1.20;;;7.20;98.20;;;;;;5373860;26;20225;-67
2024/04/20 07:18:06;;;;;;;1.10;1.00;;;7.20;98.10;;;;;;5362608;26;20624;-65
2024/04/20 07:20:39;;;;;;;0.80;0.80;;;7.20;98.10;;;;;;5369085;26;20303;-67
2024/04/20 07:23:07;;;;;;;1.23;1.00;;;7.30;98.20;;;;;;5364346;26;20271;-68
2024/04/20 07:25:39;;;;;;;1.70;1.00;;;7.40;98.10;;;;;;5368306;26;20708;-67
2024/04/20 07:28:08;;;;;;;2.40;1.13;;;7.30;97.40;;;;;;5367683;26;20729;-67
2024/04/20 07:30:40;;;;;;;0.90;0.90;;;7.30;97.30;;;;;;5363158;26;20290;-67
2024/04/20 07:33:12;;;;;;;1.40;1.30;;;7.30;97.50;;;;;;5366826;26;20689;-68
2024/04/20 07:35:41;;;;;;;1.23;1.13;;;7.30;97.80;;;;;;5376202;26;20363;-67
2024/04/20 07:38:10;;;;;;;2.63;1.40;;;7.40;97.90;;;;;;5377864;26;20236;-68
2024/04/20 07:40:42;;;;;;;2.43;1.40;;;7.50;97.90;;;;;;5372148;26;20847;-66
2024/04/20 07:43:11;;;;;;;1.10;1.00;;;7.60;97.80;;;;;;5376045;26;20275;-65
2024/04/20 07:45:40;;;;;;;2.13;1.30;;;7.70;97.40;;;;;;5375188;26;20232;-67
2024/04/20 07:48:10;;;;;;;1.30;1.20;;;7.80;97.10;;;;;;5367418;26;20236;-67
2024/04/20 07:50:39;;;;;;;3.27;1.20;;;7.90;96.70;;;;;;5373918;26;20361;-67
2024/04/20 07:53:08;;;;;;;1.10;1.00;;;8.00;96.70;;;;;;5370991;26;20236;-67
2024/04/20 07:55:37;;;;;;;2.80;1.20;;;8.10;96.40;;;;;;5367669;26;20237;-67
2024/04/20 07:58:09;;;;;;;1.27;0.87;;;8.10;96.20;;;;;;5372241;26;20232;-67
2024/04/20 08:00:37;;;;;;;1.30;1.20;;;8.10;96.00;;;;;;5371753;26;20271;-67
2024/04/20 08:03:07;;;;;;;1.20;1.10;;;8.10;95.70;;;;;;5367383;26;20240;-67
2024/04/20 08:05:37;;;;;;;1.30;1.20;;;8.10;95.80;;;;;;5375011;26;20292;-67
2024/04/20 08:08:06;;;;;;;2.10;1.07;;;8.10;96.00;;;;;;5374729;26;20356;-67
2024/04/20 08:10:35;;;;;;;0.93;0.93;;;8.10;95.90;;;;;;5377501;26;20232;-67
2024/04/20 08:13:03;;;;;;;5.63;1.13;;;8.10;95.80;;;;;;5369550;26;20267;-67
2024/04/20 08:15:35;;;;;;;1.20;0.93;;;8.10;95.90;;;;;;5364173;26;20569;-68
2024/04/20 08:18:05;;;;;;;2.93;1.07;;;8.00;95.90;;;;;;5362023;26;20233;-67
2024/04/20 08:20:33;;;;;;;2.43;1.20;;;8.00;95.90;;;;;;5374176;26;20232;-68
2024/04/20 08:23:02;;;;;;;0.80;0.80;;;7.90;95.90;;;;;;5369266;26;20232;-67
2024/04/20 08:25:31;;;;;;;1.83;0.93;;;7.90;96.00;;;;;;5371737;26;20317;-68
2024/04/20 08:28:00;;;;;;;1.60;1.20;;;6.90;95.40;;;;;;5367358;26;20514;-66
2024/04/20 08:30:29;;;;;;;1.00;0.93;;;8.00;95.80;;;;;;5368635;26;20232;-67
2024/04/20 08:33:00;;;;;;;1.10;1.00;;;8.00;95.90;;;;;;5374548;26;20244;-67
2024/04/20 08:35:29;;;;;;;2.07;1.17;;;8.00;95.80;;;;;;5373320;26;20378;-66
2024/04/20 08:37:58;;;;;;;1.20;1.10;;;8.10;95.50;;;;;;5378688;26;20240;-67
2024/04/20 08:40:28;;;;;;;2.33;1.10;;;8.10;95.30;;;;;;5377824;26;20283;-67
2024/04/20 08:42:58;;;;;;;0.83;0.80;;;8.10;94.40;;;;;;5363289;26;20253;-67
2024/04/20 08:45:28;;;;;;;1.93;1.10;;;8.20;94.50;;;;;;5370402;26;20232;-67
2024/04/20 08:48:01;;;;;;;1.20;1.00;;;8.30;94.40;;;;;;5369332;26;20597;-67
2024/04/20 08:50:31;;;;;;;3.40;0.90;;;8.30;93.70;;;;;;5365801;26;20298;-66
2024/04/20 08:53:02;;;;;;;1.10;0.80;;;8.40;93.60;;;;;;5367261;26;20237;-67
2024/04/20 08:55:33;;;;;;;1.47;1.10;;;8.40;93.20;;;;;;5375666;26;20266;-67
2024/04/20 08:58:03;;;;;;;2.63;0.80;;;8.30;93.00;;;;;;5376198;26;20536;-67
2024/04/20 09:00:34;;;;;;;5.40;1.00;;;8.20;92.90;;;;;;5374830;26;20259;-67
2024/04/20 09:03:07;;;;;;;2.47;1.03;;;8.20;93.00;;;;;;5368831;26;20236;-67
2024/04/20 09:05:36;;;;;;;1.37;0.90;;;8.20;93.20;;;;;;5376665;26;20248;-66
2024/04/20 09:08:06;;;;;;;1.00;1.00;;;8.30;93.50;;;;;;5377784;26;20274;-65
2024/04/20 09:10:35;;;;;;;0.90;0.90;;;8.40;93.40;;;;;;5376736;26;20311;-65
2024/04/20 09:13:06;;;;;;;3.97;0.90;;;8.40;93.20;;;;;;5375675;26;20236;-66
2024/04/20 09:15:35;;;;;;;6.23;1.30;;;8.40;93.10;;;;;;5372844;26;20232;-66
2024/04/20 09:18:06;;;;;;;0.97;0.97;;;8.50;93.10;;;;;;5376720;26;20279;-65
2024/04/20 09:20:35;;;;;;;2.53;1.00;;;8.50;93.10;;;;;;5372936;26;20230;-67
2024/04/20 09:23:07;;;;;;;1.40;1.30;;;8.50;93.10;;;;;;5375589;26;20232;-67
2024/04/20 09:25:37;;;;;;;4.40;1.23;;;8.50;93.10;;;;;;5368966;26;20284;-67
2024/04/20 09:28:07;;;;;;;1.53;1.20;;;8.50;92.30;;;;;;5373962;26;20247;-67
2024/04/20 09:30:36;;;;;;;1.27;0.83;;;8.40;91.20;;;;;;5372234;26;20289;-67
2024/04/20 09:33:13;;;;;;;1.30;0.90;;;8.50;91.30;;;;;;5370845;26;20435;-68
2024/04/20 09:35:43;;;;;;;1.60;0.90;;;8.50;90.80;;;;;;5374026;26;20244;-66
2024/04/20 09:38:13;;;;;;;3.93;1.00;;;8.60;90.50;;;;;;5367704;26;20351;-66
2024/04/20 09:40:42;;;;;;;1.77;1.37;;;8.70;90.40;;;;;;5356059;26;20319;-67
2024/04/20 09:43:12;;;;;;;1.20;0.90;;;8.70;89.30;;;;;;5359987;26;20374;-69
2024/04/20 09:45:44;;;;;;;1.97;0.93;;;8.80;89.00;;;;;;5354701;26;20324;-67
2024/04/20 09:48:16;;;;;;;1.17;1.10;;;8.80;89.50;;;;;;5363950;26;20347;-67
2024/04/20 09:50:49;;;;;;;1.30;1.00;;;8.90;89.90;;;;;;5374897;26;20350;-67
2024/04/20 09:53:34;;;;;;;1.37;1.07;;;9.10;89.90;;;;;;5365639;26;20234;-67
2024/04/20 09:56:04;;;;;;;1.97;0.90;;;9.30;89.10;;;;;;5360312;26;20391;-66
2024/04/20 09:58:34;;;;;;;0.97;0.97;;;9.30;87.40;;;;;;5374081;26;20288;-67
2024/04/20 10:01:03;;;;;;;1.13;1.00;;;9.40;86.10;;;;;;5364687;26;20553;-65
2024/04/20 10:03:36;;;;;;;1.10;1.10;;;9.40;86.90;;;;;;5369811;26;20324;-64
2024/04/20 10:06:06;;;;;;;1.30;1.17;;;9.40;87.00;;;;;;5371666;26;20233;-64
2024/04/20 10:08:36;;;;;;;3.33;1.00;;;9.50;86.10;;;;;;5380907;26;20232;-65
2024/04/20 10:11:05;;;;;;;1.10;0.97;;;9.60;86.00;;;;;;5379255;26;20290;-65
2024/04/20 10:13:36;;;;;;;1.50;1.40;;;9.90;87.40;;;;;;5379091;26;20239;-65
2024/04/20 10:16:06;;;;;;;2.10;1.40;;;10.00;85.80;;;;;;5378781;26;20317;-67
2024/04/20 10:18:38;;;;;;;2.00;1.20;;;10.10;85.10;;;;;;5372966;26;20249;-67
2024/04/20 10:21:07;;;;;;;1.73;1.50;;;10.30;83.60;;;;;;5361620;26;20240;-66
2024/04/20 10:23:34;;;;;;;1.10;1.07;;;10.50;84.20;;;;;;5374160;26;20280;-65
2024/04/20 10:26:02;;;;;;;0.90;0.90;;;10.60;84.20;;;;;;5371629;26;20244;-65
2024/04/20 10:28:35;;;;;;;2.30;1.17;;;10.80;84.20;;;;;;5374829;26;20240;-65
2024/04/20 10:31:05;;;;;;;1.20;1.10;;;10.80;83.00;;;;;;5372291;26;20349;-65
2024/04/20 10:33:39;;;;;;;2.90;1.00;;;10.80;81.30;;;;;;5373047;26;20232;-65
2024/04/20 10:36:12;;;;;;;2.07;0.90;;;10.80;81.20;;;;;;5375656;26;20245;-66
2024/04/20 10:38:41;;;;;;;1.37;0.80;;;10.80;81.80;;;;;;5352862;26;20238;-66
2024/04/20 10:41:15;;;;;;;0.90;0.90;;;10.80;81.70;;;;;;5354799;26;20288;-66
2024/04/20 10:43:44;;;;;;;1.83;1.03;;;10.70;81.60;;;;;;5368373;26;20653;-66
2024/04/20 10:46:13;;;;;;;1.10;1.10;;;10.60;81.30;;;;;;5393964;26;20426;-64
2024/04/20 10:48:45;;;;;;;0.80;0.80;;;10.50;81.20;;;;;;5379342;26;20341;-65
2024/04/20 10:51:17;;;;;;;2.73;1.00;;;10.40;81.20;;;;;;5374553;26;20241;-64
2024/04/20 10:53:46;;;;;;;3.03;0.90;;;10.30;80.60;;;;;;5374329;26;20287;-65
2024/04/20 10:56:16;;;;;;;1.20;1.03;;;10.20;80.40;;;;;;5370967;26;20290;-66
2024/04/20 10:58:45;;;;;;;1.43;1.33;;;10.20;81.10;;;;;;5376383;26;20356;-66
2024/04/20 11:01:14;;;;;;;1.63;1.00;;;10.20;80.50;;;;;;5368410;26;20240;-66
2024/04/20 11:03:46;;;;;;;4.47;1.27;;;10.30;80.60;;;;;;5358566;26;20239;-66
2024/04/20 11:06:21;;;;;;;2.67;1.50;;;10.40;80.70;;;;;;5366315;26;20243;-67
2024/04/20 11:08:50;;;;;;;2.07;1.30;;;10.50;79.90;;;;;;5369593;26;20563;-66
2024/04/20 11:11:20;;;;;;;1.67;1.20;;;10.50;80.00;;;;;;5363778;26;20365;-67
2024/04/20 11:13:59;;;;;;;1.50;1.27;;;10.60;79.30;;;;;;5365564;26;20249;-67
2024/04/20 11:16:28;;;;;;;0.80;0.80;;;10.60;78.20;;;;;;5360848;26;20307;-65
2024/04/20 11:19:00;;;;;;;1.23;1.13;;;10.50;78.40;;;;;;5377406;26;20235;-66
2024/04/20 11:21:29;;;;;;;1.10;1.10;;;10.40;78.40;;;;;;5376099;26;20236;-66
2024/04/20 11:23:58;;;;;;;1.40;1.30;;;10.40;78.80;;;;;;5372459;26;20232;-66
2024/04/20 11:26:27;;;;;;;1.90;1.40;;;10.40;79.90;;;;;;5371147;26;20291;-66
2024/04/20 11:28:55;;;;;;;1.50;1.20;;;10.20;82.70;;;;;;5378736;26;20327;-66
2024/04/20 11:31:24;;;;;;;1.27;1.13;;;10.00;84.50;;;;;;5373676;26;20319;-66
2024/04/20 11:33:53;;;;;;;1.20;1.10;;;9.80;87.00;;;;;;5362373;26;20238;-67
2024/04/20 11:36:26;;;;;;;1.10;1.10;;;9.70;87.80;;;;;;5377085;26;20274;-66
2024/04/20 11:38:55;;;;;;;1.43;1.00;;;9.60;88.70;;;;;;5379326;26;20256;-65
2024/04/20 11:41:24;;;;;;;1.10;1.00;;;9.50;88.90;;;;;;5378117;26;20420;-64
2024/04/20 11:43:51;;;;;;;1.43;1.00;;;9.50;89.30;;;;;;5378855;26;20239;-64
2024/04/20 11:46:20;;;;;;;1.17;1.17;;;9.60;89.50;;;;;;5371379;26;20248;-64
2024/04/20 11:48:48;;;;;;;1.30;1.20;;;9.70;89.40;;;;;;5376832;26;20599;-64
2024/04/20 11:54:18;;;;;;;1.37;1.27;;;9.70;89.00;;;;;;5372472;26;20713;-65
2024/04/20 11:54:18;;;;;;;4.43;1.40;;;9.60;88.10;;;;;;5372698;26;20826;-65
2024/04/20 11:56:47;;;;;;;1.50;1.40;;;9.50;87.80;;;;;;5362857;26;20310;-66
2024/04/20 11:59:16;;;;;;;1.57;1.27;;;9.50;88.40;;;;;;5371352;26;20235;-65
2024/04/20 12:01:45;;;;;;;2.57;1.50;;;9.50;88.90;;;;;;5378117;26;20238;-65
2024/04/20 12:04:15;;;;;;;1.40;1.30;;;9.60;90.20;;;;;;5373531;26;20295;-65
2024/04/20 12:06:46;;;;;;;1.80;1.10;;;9.60;90.60;;;;;;5377266;26;20343;-65
2024/04/20 12:09:15;;;;;;;2.57;1.17;;;9.60;90.70;;;;;;5377347;26;20281;-64
2024/04/20 12:11:44;;;;;;;1.63;1.10;;;9.70;90.70;;;;;;5377868;26;20249;-65
2024/04/20 12:14:13;;;;;;;0.80;0.80;;;9.70;90.60;;;;;;5376542;26;20367;-66
2024/04/20 12:16:42;;;;;;;1.43;1.33;;;9.90;90.60;;;;;;5375041;26;20236;-66
2024/04/20 12:19:10;;;;;;;2.70;1.43;;;9.90;90.50;;;;;;5378339;26;20231;-65
2024/04/20 12:21:39;;;;;;;4.03;1.20;;;10.00;90.00;;;;;;5379575;26;20338;-66
2024/04/20 12:24:11;;;;;;;1.27;1.20;;;10.00;89.60;;;;;;5377261;26;20343;-64
2024/04/20 12:26:40;;;;;;;1.30;1.20;;;10.00;89.60;;;;;;5375383;26;20328;-64
2024/04/20 12:29:09;;;;;;;1.93;1.50;;;9.90;90.10;;;;;;5370234;26;20747;-67
2024/04/20 12:31:37;;;;;;;1.60;1.50;;;9.90;89.50;;;;;;5361390;26;20247;-67
2024/04/20 12:34:06;;;;;;;2.07;1.33;;;9.80;88.70;;;;;;5370906;26;20307;-66
2024/04/20 12:36:35;;;;;;;1.50;1.40;;;9.80;88.60;;;;;;5371681;26;20711;-67
2024/04/20 12:39:04;;;;;;;1.17;1.17;;;9.80;88.50;;;;;;5372815;26;20336;-67
2024/04/20 12:41:35;;;;;;;0.90;0.90;;;9.90;88.70;;;;;;5366844;26;20278;-66
2024/04/20 12:44:04;;;;;;;0.77;0.77;;;9.90;88.40;;;;;;5372836;26;20583;-66
2024/04/20 12:46:33;;;;;;;1.10;1.00;;;10.00;86.90;;;;;;5371402;26;20243;-67
2024/04/20 12:49:02;;;;;;;2.63;1.20;;;10.00;86.80;;;;;;5377125;26;20286;-66
2024/04/20 12:51:31;;;;;;;1.80;1.30;;;10.00;86.30;;;;;;5375701;26;20244;-67
2024/04/20 12:53:59;;;;;;;2.07;1.20;;;10.00;85.50;;;;;;5370809;26;20240;-66
2024/04/20 12:56:28;;;;;;;1.40;1.00;;;9.80;85.20;;;;;;5378368;26;20678;-66
2024/04/20 12:59:00;;;;;;;1.30;1.10;;;9.70;85.40;;;;;;5376210;26;20867;-66
2024/04/20 13:01:28;;;;;;;1.30;1.20;;;9.70;85.90;;;;;;5378625;26;20236;-67
2024/04/20 13:03:57;;;;;;;1.73;1.13;;;9.70;85.30;;;;;;5369715;26;20283;-67
2024/04/20 13:06:27;;;;;;;2.40;1.27;;;9.60;85.40;;;;;;5360926;26;20751;-67
2024/04/20 13:08:55;;;;;;;1.93;1.10;;;9.60;85.70;;;;;;5373947;26;20714;-66